sensor_id;sensor_type;location;lat;lon;timestamp;pressure;altitude;pressure_sealevel;temperature;humidity
7966;BME280;4028;43.272;26.932;2022-10-14T00:01:06;99635.66;;;12.07;100.00
7966;BME280;4028;43.272;26.932;2022-10-14T00:03:32;99634.97;;;11.95;100.00
7966;BME280;4028;43.272;26.932;2022-10-14T00:05:58;99633.56;;;11.91;100.00
7966;BME280;4028;43.272;26.932;2022-10-14T00:08:24;99635.81;;;11.96;100.00
7966;BME280;4028;43.272;26.932;2022-10-14T00:10:50;99637.19;;;11.90;100.00
7966;BME280;4028;43.272;26.932;2022-10-14T00:13:16;99619.59;;;11.80;100.00
7966;BME280;4028;43.272;26.932;2022-10-14T00:15:41;99614.03;;;11.73;100.00
7966;BME280;4028;43.272;26.932;2022-10-14T00:18:07;99623.91;;;11.81;100.00
7966;BME280;4028;43.272;26.932;2022-10-14T00:20:34;99619.88;;;11.86;100.00
7966;BME280;4028;43.272;26.932;2022-10-14T00:22:59;99618.22;;;11.85;100.00
7966;BME280;4028;43.272;26.932;2022-10-14T00:25:25;99613.72;;;11.76;100.00
7966;BME280;4028;43.272;26.932;2022-10-14T00:27:51;99600.34;;;11.78;100.00
7966;BME280;4028;43.272;26.932;2022-10-14T00:30:17;99613.91;;;11.84;100.00
7966;BME280;4028;43.272;26.932;2022-10-14T00:32:43;99609.25;;;11.77;100.00
7966;BME280;4028;43.272;26.932;2022-10-14T00:35:09;99612.34;;;11.72;100.00
7966;BME280;4028;43.272;26.932;2022-10-14T00:37:34;99608.41;;;11.66;100.00
7966;BME280;4028;43.272;26.932;2022-10-14T00:40:00;99619.03;;;11.66;100.00
7966;BME280;4028;43.272;26.932;2022-10-14T00:42:25;99612.75;;;11.77;100.00
7966;BME280;4028;43.272;26.932;2022-10-14T00:44:59;99615.28;;;11.79;100.00
7966;BME280;4028;43.272;26.932;2022-10-14T00:47:25;99607.16;;;11.80;100.00
7966;BME280;4028;43.272;26.932;2022-10-14T00:49:50;99613.31;;;11.81;100.00
7966;BME280;4028;43.272;26.932;2022-10-14T00:52:18;99609.00;;;11.80;100.00
7966;BME280;4028;43.272;26.932;2022-10-14T00:54:50;99610.66;;;11.71;100.00
7966;BME280;4028;43.272;26.932;2022-10-14T00:57:18;99604.41;;;11.72;100.00
7966;BME280;4028;43.272;26.932;2022-10-14T00:59:44;99603.84;;;11.68;100.00
7966;BME280;4028;43.272;26.932;2022-10-14T01:02:10;99603.69;;;11.70;100.00
7966;BME280;4028;43.272;26.932;2022-10-14T01:04:38;99600.88;;;11.71;100.00
7966;BME280;4028;43.272;26.932;2022-10-14T01:10:05;99605.50;;;11.69;100.00
7966;BME280;4028;43.272;26.932;2022-10-14T01:13:25;99602.44;;;11.74;100.00
7966;BME280;4028;43.272;26.932;2022-10-14T01:27:12;99609.41;;;11.65;100.00
7966;BME280;4028;43.272;26.932;2022-10-14T01:32:54;99599.50;;;11.67;100.00
7966;BME280;4028;43.272;26.932;2022-10-14T01:38:31;99602.28;;;11.66;100.00
7966;BME280;4028;43.272;26.932;2022-10-14T01:41:06;99597.13;;;11.64;100.00
7966;BME280;4028;43.272;26.932;2022-10-14T01:43:34;99601.19;;;11.68;100.00
7966;BME280;4028;43.272;26.932;2022-10-14T01:46:03;99593.78;;;11.62;100.00
7966;BME280;4028;43.272;26.932;2022-10-14T01:48:33;99605.91;;;11.65;100.00
7966;BME280;4028;43.272;26.932;2022-10-14T01:51:05;99571.44;;;11.45;100.00
7966;BME280;4028;43.272;26.932;2022-10-14T01:53:39;99598.25;;;11.62;100.00
7966;BME280;4028;43.272;26.932;2022-10-14T01:56:07;99596.56;;;11.61;100.00
7966;BME280;4028;43.272;26.932;2022-10-14T01:58:34;99584.03;;;11.53;100.00
7966;BME280;4028;43.272;26.932;2022-10-14T02:01:05;99584.44;;;11.58;100.00
7966;BME280;4028;43.272;26.932;2022-10-14T02:03:45;99592.53;;;11.57;100.00
7966;BME280;4028;43.272;26.932;2022-10-14T02:06:20;99590.84;;;11.56;100.00
7966;BME280;4028;43.272;26.932;2022-10-14T02:09:06;99597.69;;;11.49;100.00
7966;BME280;4028;43.272;26.932;2022-10-14T02:17:04;99604.81;;;11.48;100.00
7966;BME280;4028;43.272;26.932;2022-10-14T02:19:39;99605.63;;;11.49;100.00
7966;BME280;4028;43.272;26.932;2022-10-14T02:22:19;99601.72;;;11.43;100.00
7966;BME280;4028;43.272;26.932;2022-10-14T02:24:52;99600.47;;;11.47;100.00
7966;BME280;4028;43.272;26.932;2022-10-14T02:27:20;99600.75;;;11.44;100.00
7966;BME280;4028;43.272;26.932;2022-10-14T02:29:51;99598.50;;;11.39;100.00
7966;BME280;4028;43.272;26.932;2022-10-14T02:32:22;99597.94;;;11.45;100.00
7966;BME280;4028;43.272;26.932;2022-10-14T02:34:51;99590.72;;;11.48;100.00
7966;BME280;4028;43.272;26.932;2022-10-14T02:37:18;99591.25;;;11.51;100.00
7966;BME280;4028;43.272;26.932;2022-10-14T02:39:54;99588.75;;;11.40;100.00
7966;BME280;4028;43.272;26.932;2022-10-14T02:42:21;99595.19;;;11.47;100.00
7966;BME280;4028;43.272;26.932;2022-10-14T02:44:51;99591.13;;;11.43;100.00
7966;BME280;4028;43.272;26.932;2022-10-14T02:47:18;99587.66;;;11.42;100.00
7966;BME280;4028;43.272;26.932;2022-10-14T02:49:43;99589.31;;;11.43;100.00
7966;BME280;4028;43.272;26.932;2022-10-14T02:52:09;99584.44;;;11.49;100.00
7966;BME280;4028;43.272;26.932;2022-10-14T02:54:34;99589.47;;;11.42;100.00
7966;BME280;4028;43.272;26.932;2022-10-14T02:57:00;99577.88;;;11.33;100.00
7966;BME280;4028;43.272;26.932;2022-10-14T02:59:25;99582.59;;;11.39;100.00
7966;BME280;4028;43.272;26.932;2022-10-14T03:01:50;99560.41;;;11.31;100.00
7966;BME280;4028;43.272;26.932;2022-10-14T03:04:16;99569.34;;;11.39;100.00
7966;BME280;4028;43.272;26.932;2022-10-14T03:06:41;99568.94;;;11.34;100.00
7966;BME280;4028;43.272;26.932;2022-10-14T03:09:07;99564.22;;;11.38;100.00
7966;BME280;4028;43.272;26.932;2022-10-14T03:11:32;99567.13;;;11.35;100.00
7966;BME280;4028;43.272;26.932;2022-10-14T03:13:58;99573.41;;;11.43;100.00
7966;BME280;4028;43.272;26.932;2022-10-14T03:16:23;99574.97;;;11.36;100.00
7966;BME280;4028;43.272;26.932;2022-10-14T03:18:49;99569.22;;;11.31;100.00
7966;BME280;4028;43.272;26.932;2022-10-14T03:21:14;99565.88;;;11.29;100.00
7966;BME280;4028;43.272;26.932;2022-10-14T03:23:39;99559.75;;;11.29;100.00
7966;BME280;4028;43.272;26.932;2022-10-14T03:26:05;99555.41;;;11.28;100.00
7966;BME280;4028;43.272;26.932;2022-10-14T03:28:30;99546.06;;;11.33;100.00
7966;BME280;4028;43.272;26.932;2022-10-14T03:30:56;99553.88;;;11.25;100.00
7966;BME280;4028;43.272;26.932;2022-10-14T03:33:21;99530.56;;;11.09;100.00
7966;BME280;4028;43.272;26.932;2022-10-14T03:35:47;99556.66;;;11.24;100.00
7966;BME280;4028;43.272;26.932;2022-10-14T03:38:12;99550.28;;;11.26;100.00
7966;BME280;4028;43.272;26.932;2022-10-14T03:40:38;99534.91;;;11.20;100.00
7966;BME280;4028;43.272;26.932;2022-10-14T03:43:03;99546.50;;;11.29;100.00
7966;BME280;4028;43.272;26.932;2022-10-14T03:45:28;99548.03;;;11.31;100.00
7966;BME280;4028;43.272;26.932;2022-10-14T03:47:54;99549.41;;;11.26;100.00
7966;BME280;4028;43.272;26.932;2022-10-14T03:50:20;99546.22;;;11.22;100.00
7966;BME280;4028;43.272;26.932;2022-10-14T03:52:46;99544.09;;;11.26;100.00
7966;BME280;4028;43.272;26.932;2022-10-14T03:55:11;99543.00;;;11.28;100.00
7966;BME280;4028;43.272;26.932;2022-10-14T03:57:37;99544.09;;;11.26;100.00
7966;BME280;4028;43.272;26.932;2022-10-14T04:00:04;99543.41;;;11.24;100.00
7966;BME280;4028;43.272;26.932;2022-10-14T04:02:30;99553.03;;;11.25;100.00
7966;BME280;4028;43.272;26.932;2022-10-14T04:04:55;99545.91;;;11.25;100.00
7966;BME280;4028;43.272;26.932;2022-10-14T04:07:21;99546.75;;;11.26;100.00
7966;BME280;4028;43.272;26.932;2022-10-14T04:09:47;99547.63;;;11.26;100.00
7966;BME280;4028;43.272;26.932;2022-10-14T04:12:12;99547.47;;;11.28;100.00
7966;BME280;4028;43.272;26.932;2022-10-14T04:14:38;99555.69;;;11.25;100.00
7966;BME280;4028;43.272;26.932;2022-10-14T04:17:03;99560.00;;;11.26;100.00
7966;BME280;4028;43.272;26.932;2022-10-14T04:19:29;99557.66;;;11.23;100.00
7966;BME280;4028;43.272;26.932;2022-10-14T04:21:55;99547.63;;;11.26;100.00
7966;BME280;4028;43.272;26.932;2022-10-14T04:24:21;99540.63;;;11.25;100.00
7966;BME280;4028;43.272;26.932;2022-10-14T04:26:49;99550.81;;;11.30;100.00
7966;BME280;4028;43.272;26.932;2022-10-14T04:29:15;99559.88;;;11.27;100.00
7966;BME280;4028;43.272;26.932;2022-10-14T04:31:40;99545.09;;;11.25;100.00
7966;BME280;4028;43.272;26.932;2022-10-14T04:34:06;99551.50;;;11.22;100.00
7966;BME280;4028;43.272;26.932;2022-10-14T04:36:31;99551.09;;;11.27;100.00
7966;BME280;4028;43.272;26.932;2022-10-14T04:38:57;99548.44;;;11.27;100.00
7966;BME280;4028;43.272;26.932;2022-10-14T04:41:22;99548.47;;;11.36;100.00
7966;BME280;4028;43.272;26.932;2022-10-14T04:43:48;99534.38;;;11.26;100.00
7966;BME280;4028;43.272;26.932;2022-10-14T04:46:13;99541.03;;;11.30;100.00
7966;BME280;4028;43.272;26.932;2022-10-14T04:48:39;99526.97;;;11.30;100.00
7966;BME280;4028;43.272;26.932;2022-10-14T04:51:04;99553.47;;;11.39;100.00
7966;BME280;4028;43.272;26.932;2022-10-14T04:53:30;99549.84;;;11.40;100.00
7966;BME280;4028;43.272;26.932;2022-10-14T04:55:55;99555.56;;;11.45;100.00
7966;BME280;4028;43.272;26.932;2022-10-14T04:58:21;99551.94;;;11.47;100.00
7966;BME280;4028;43.272;26.932;2022-10-14T05:00:46;99546.66;;;11.47;100.00
7966;BME280;4028;43.272;26.932;2022-10-14T05:03:12;99546.91;;;11.53;100.00
7966;BME280;4028;43.272;26.932;2022-10-14T05:05:37;99545.25;;;11.62;100.00
7966;BME280;4028;43.272;26.932;2022-10-14T05:08:03;99552.91;;;11.65;100.00
7966;BME280;4028;43.272;26.932;2022-10-14T05:10:28;99549.84;;;11.69;100.00
7966;BME280;4028;43.272;26.932;2022-10-14T05:12:54;99545.22;;;11.71;100.00
7966;BME280;4028;43.272;26.932;2022-10-14T05:15:20;99537.00;;;11.75;100.00
7966;BME280;4028;43.272;26.932;2022-10-14T05:17:46;99550.69;;;11.89;100.00
7966;BME280;4028;43.272;26.932;2022-10-14T05:20:11;99552.19;;;12.02;100.00
7966;BME280;4028;43.272;26.932;2022-10-14T05:22:37;99550.91;;;12.06;100.00
7966;BME280;4028;43.272;26.932;2022-10-14T05:25:03;99555.22;;;12.07;100.00
7966;BME280;4028;43.272;26.932;2022-10-14T05:27:29;99545.03;;;12.12;100.00
7966;BME280;4028;43.272;26.932;2022-10-14T05:29:55;99533.34;;;12.05;100.00
7966;BME280;4028;43.272;26.932;2022-10-14T05:32:20;99550.75;;;12.17;100.00
7966;BME280;4028;43.272;26.932;2022-10-14T05:34:46;99554.78;;;12.21;100.00
7966;BME280;4028;43.272;26.932;2022-10-14T05:37:12;99553.63;;;12.33;100.00
7966;BME280;4028;43.272;26.932;2022-10-14T05:39:37;99548.72;;;12.38;100.00
7966;BME280;4028;43.272;26.932;2022-10-14T05:42:03;99567.25;;;12.48;100.00
7966;BME280;4028;43.272;26.932;2022-10-14T05:44:28;99558.41;;;12.57;100.00
7966;BME280;4028;43.272;26.932;2022-10-14T05:46:54;99569.16;;;12.65;100.00
7966;BME280;4028;43.272;26.932;2022-10-14T05:49:19;99555.84;;;12.75;100.00
7966;BME280;4028;43.272;26.932;2022-10-14T05:51:45;99568.47;;;12.91;100.00
7966;BME280;4028;43.272;26.932;2022-10-14T05:54:11;99553.81;;;13.05;100.00
7966;BME280;4028;43.272;26.932;2022-10-14T05:56:36;99568.19;;;13.21;100.00
7966;BME280;4028;43.272;26.932;2022-10-14T05:59:02;99553.13;;;13.30;100.00
7966;BME280;4028;43.272;26.932;2022-10-14T06:01:28;99561.78;;;13.50;100.00
7966;BME280;4028;43.272;26.932;2022-10-14T06:03:55;99543.19;;;13.68;100.00
7966;BME280;4028;43.272;26.932;2022-10-14T06:06:21;99555.72;;;13.58;100.00
7966;BME280;4028;43.272;26.932;2022-10-14T06:08:47;99564.06;;;13.63;100.00
7966;BME280;4028;43.272;26.932;2022-10-14T06:11:13;99562.09;;;13.65;100.00
7966;BME280;4028;43.272;26.932;2022-10-14T06:13:38;99563.66;;;13.75;100.00
7966;BME280;4028;43.272;26.932;2022-10-14T06:16:06;99571.09;;;13.90;100.00
7966;BME280;4028;43.272;26.932;2022-10-14T06:18:34;99569.28;;;13.90;100.00
7966;BME280;4028;43.272;26.932;2022-10-14T06:21:00;99563.78;;;13.92;100.00
7966;BME280;4028;43.272;26.932;2022-10-14T06:23:27;99575.81;;;13.96;100.00
7966;BME280;4028;43.272;26.932;2022-10-14T06:25:52;99570.34;;;13.97;100.00
7966;BME280;4028;43.272;26.932;2022-10-14T06:28:18;99555.06;;;13.99;100.00
7966;BME280;4028;43.272;26.932;2022-10-14T06:30:54;99561.53;;;14.49;100.00
7966;BME280;4028;43.272;26.932;2022-10-14T06:33:21;99561.50;;;15.42;100.00
7966;BME280;4028;43.272;26.932;2022-10-14T06:35:47;99556.63;;;16.35;100.00
7966;BME280;4028;43.272;26.932;2022-10-14T06:38:14;99554.03;;;16.66;100.00
7966;BME280;4028;43.272;26.932;2022-10-14T06:40:40;99552.44;;;16.88;100.00
7966;BME280;4028;43.272;26.932;2022-10-14T06:43:06;99560.66;;;16.86;100.00
7966;BME280;4028;43.272;26.932;2022-10-14T06:45:32;99554.88;;;17.06;100.00
7966;BME280;4028;43.272;26.932;2022-10-14T06:47:58;99541.59;;;17.44;100.00
7966;BME280;4028;43.272;26.932;2022-10-14T06:50:24;99543.66;;;18.32;100.00
7966;BME280;4028;43.272;26.932;2022-10-14T06:52:50;99548.16;;;18.84;100.00
7966;BME280;4028;43.272;26.932;2022-10-14T06:55:16;99543.88;;;19.26;100.00
7966;BME280;4028;43.272;26.932;2022-10-14T06:57:42;99551.25;;;19.81;100.00
7966;BME280;4028;43.272;26.932;2022-10-14T07:00:08;99541.25;;;20.24;100.00
7966;BME280;4028;43.272;26.932;2022-10-14T07:02:37;99547.44;;;20.53;91.15
7966;BME280;4028;43.272;26.932;2022-10-14T07:05:04;99538.59;;;20.59;97.25
7966;BME280;4028;43.272;26.932;2022-10-14T07:07:31;99528.41;;;21.02;79.15
7966;BME280;4028;43.272;26.932;2022-10-14T07:09:57;99540.72;;;20.70;79.17
7966;BME280;4028;43.272;26.932;2022-10-14T07:12:24;99543.44;;;20.42;93.17
7966;BME280;4028;43.272;26.932;2022-10-14T07:14:50;99540.16;;;20.19;100.00
7966;BME280;4028;43.272;26.932;2022-10-14T07:17:17;99530.53;;;19.96;100.00
7966;BME280;4028;43.272;26.932;2022-10-14T07:19:43;99532.53;;;19.45;100.00
7966;BME280;4028;43.272;26.932;2022-10-14T07:22:09;99540.75;;;18.71;100.00
7966;BME280;4028;43.272;26.932;2022-10-14T07:24:35;99528.44;;;18.17;100.00
7966;BME280;4028;43.272;26.932;2022-10-14T07:27:01;99531.63;;;17.83;100.00
7966;BME280;4028;43.272;26.932;2022-10-14T07:29:27;99484.16;;;17.08;100.00
7966;BME280;4028;43.272;26.932;2022-10-14T07:31:54;99523.41;;;17.16;100.00
7966;BME280;4028;43.272;26.932;2022-10-14T07:34:20;99540.16;;;17.10;100.00
7966;BME280;4028;43.272;26.932;2022-10-14T07:36:46;99531.88;;;17.20;100.00
7966;BME280;4028;43.272;26.932;2022-10-14T07:39:12;99513.16;;;17.20;100.00
7966;BME280;4028;43.272;26.932;2022-10-14T07:41:39;99521.16;;;17.28;100.00
7966;BME280;4028;43.272;26.932;2022-10-14T07:44:06;99533.16;;;17.32;100.00
7966;BME280;4028;43.272;26.932;2022-10-14T07:46:37;99508.09;;;16.71;100.00
7966;BME280;4028;43.272;26.932;2022-10-14T07:49:05;99532.41;;;16.92;100.00
7966;BME280;4028;43.272;26.932;2022-10-14T07:51:33;99534.44;;;16.82;100.00
7966;BME280;4028;43.272;26.932;2022-10-14T07:54:01;99530.31;;;16.79;100.00
7966;BME280;4028;43.272;26.932;2022-10-14T07:56:30;99526.31;;;16.75;100.00
7966;BME280;4028;43.272;26.932;2022-10-14T07:58:58;99526.66;;;16.64;100.00
7966;BME280;4028;43.272;26.932;2022-10-14T08:01:24;99526.19;;;16.52;100.00
7966;BME280;4028;43.272;26.932;2022-10-14T08:03:51;99531.41;;;16.46;100.00
7966;BME280;4028;43.272;26.932;2022-10-14T08:06:17;99524.91;;;16.48;100.00
7966;BME280;4028;43.272;26.932;2022-10-14T08:08:43;99531.06;;;16.49;100.00
7966;BME280;4028;43.272;26.932;2022-10-14T08:11:22;99522.53;;;16.53;100.00
7966;BME280;4028;43.272;26.932;2022-10-14T08:13:50;99525.53;;;16.58;100.00
7966;BME280;4028;43.272;26.932;2022-10-14T08:16:20;99528.53;;;16.55;100.00
7966;BME280;4028;43.272;26.932;2022-10-14T08:18:46;99522.13;;;16.73;100.00
7966;BME280;4028;43.272;26.932;2022-10-14T08:21:13;99509.84;;;16.95;100.00
7966;BME280;4028;43.272;26.932;2022-10-14T08:23:40;99512.00;;;17.22;100.00
7966;BME280;4028;43.272;26.932;2022-10-14T08:26:29;99506.69;;;17.14;100.00
7966;BME280;4028;43.272;26.932;2022-10-14T08:28:58;99509.44;;;17.29;100.00
7966;BME280;4028;43.272;26.932;2022-10-14T08:31:29;99516.41;;;17.38;100.00
7966;BME280;4028;43.272;26.932;2022-10-14T08:33:55;99514.56;;;17.38;100.00
7966;BME280;4028;43.272;26.932;2022-10-14T08:36:22;99512.84;;;17.46;100.00
7966;BME280;4028;43.272;26.932;2022-10-14T08:38:50;99523.06;;;17.42;100.00
7966;BME280;4028;43.272;26.932;2022-10-14T08:41:25;99516.63;;;17.51;100.00
7966;BME280;4028;43.272;26.932;2022-10-14T08:44:28;99523.03;;;17.65;100.00
7966;BME280;4028;43.272;26.932;2022-10-14T08:47:01;99517.22;;;17.84;100.00
7966;BME280;4028;43.272;26.932;2022-10-14T08:49:50;99520.00;;;18.06;100.00
7966;BME280;4028;43.272;26.932;2022-10-14T08:52:26;99505.06;;;17.97;100.00
7966;BME280;4028;43.272;26.932;2022-10-14T08:54:57;99510.41;;;17.97;100.00
7966;BME280;4028;43.272;26.932;2022-10-14T08:57:30;99519.56;;;18.02;100.00
7966;BME280;4028;43.272;26.932;2022-10-14T08:59:58;99511.25;;;17.97;100.00
7966;BME280;4028;43.272;26.932;2022-10-14T09:02:35;99512.00;;;18.21;100.00
7966;BME280;4028;43.272;26.932;2022-10-14T09:05:03;99504.66;;;19.46;100.00
7966;BME280;4028;43.272;26.932;2022-10-14T09:07:32;99507.50;;;20.50;100.00
7966;BME280;4028;43.272;26.932;2022-10-14T09:10:09;99506.72;;;20.56;100.00
7966;BME280;4028;43.272;26.932;2022-10-14T09:12:37;99513.03;;;20.07;100.00
7966;BME280;4028;43.272;26.932;2022-10-14T09:15:26;99511.16;;;19.80;100.00
7966;BME280;4028;43.272;26.932;2022-10-14T09:20:56;99508.31;;;19.02;100.00
7966;BME280;4028;43.272;26.932;2022-10-14T09:23:24;99501.75;;;18.68;100.00
7966;BME280;4028;43.272;26.932;2022-10-14T09:26:04;99508.69;;;18.48;100.00
7966;BME280;4028;43.272;26.932;2022-10-14T09:28:42;99505.91;;;18.27;100.00
7966;BME280;4028;43.272;26.932;2022-10-14T09:31:13;99509.84;;;18.16;100.00
7966;BME280;4028;43.272;26.932;2022-10-14T09:33:40;99512.47;;;18.24;100.00
7966;BME280;4028;43.272;26.932;2022-10-14T09:36:18;99514.59;;;18.29;100.00
7966;BME280;4028;43.272;26.932;2022-10-14T09:38:49;99506.28;;;18.38;100.00
7966;BME280;4028;43.272;26.932;2022-10-14T09:41:24;99513.31;;;18.39;100.00
7966;BME280;4028;43.272;26.932;2022-10-14T09:44:18;99512.09;;;18.27;100.00
7966;BME280;4028;43.272;26.932;2022-10-14T09:46:55;99511.63;;;18.09;100.00
7966;BME280;4028;43.272;26.932;2022-10-14T09:49:38;99501.09;;;17.92;100.00
7966;BME280;4028;43.272;26.932;2022-10-14T09:52:06;99510.41;;;17.82;100.00
7966;BME280;4028;43.272;26.932;2022-10-14T09:54:36;99513.06;;;17.82;100.00
7966;BME280;4028;43.272;26.932;2022-10-14T09:57:05;99507.59;;;17.75;100.00
7966;BME280;4028;43.272;26.932;2022-10-14T09:59:46;99517.13;;;17.70;100.00
7966;BME280;4028;43.272;26.932;2022-10-14T10:02:25;99511.78;;;17.70;100.00
7966;BME280;4028;43.272;26.932;2022-10-14T10:04:57;99514.84;;;17.66;100.00
7966;BME280;4028;43.272;26.932;2022-10-14T10:07:33;99505.25;;;17.72;100.00
7966;BME280;4028;43.272;26.932;2022-10-14T10:10:03;99502.34;;;17.59;100.00
7966;BME280;4028;43.272;26.932;2022-10-14T10:12:41;99505.03;;;17.59;100.00
7966;BME280;4028;43.272;26.932;2022-10-14T10:15:20;99505.56;;;17.54;100.00
7966;BME280;4028;43.272;26.932;2022-10-14T10:17:47;99505.59;;;17.69;100.00
7966;BME280;4028;43.272;26.932;2022-10-14T10:20:18;99504.69;;;17.62;100.00
7966;BME280;4028;43.272;26.932;2022-10-14T10:22:45;99500.88;;;17.56;100.00
7966;BME280;4028;43.272;26.932;2022-10-14T10:27:41;99502.34;;;17.59;100.00
7966;BME280;4028;43.272;26.932;2022-10-14T10:30:34;99497.38;;;17.71;100.00
7966;BME280;4028;43.272;26.932;2022-10-14T10:33:24;99495.41;;;17.73;100.00
7966;BME280;4028;43.272;26.932;2022-10-14T10:36:24;99478.66;;;17.71;100.00
7966;BME280;4028;43.272;26.932;2022-10-14T10:39:35;99492.63;;;17.81;100.00
7966;BME280;4028;43.272;26.932;2022-10-14T10:47:26;99486.00;;;17.54;100.00
7966;BME280;4028;43.272;26.932;2022-10-14T10:56:13;99493.69;;;17.34;100.00
7966;BME280;4028;43.272;26.932;2022-10-14T10:58:41;99489.34;;;17.33;100.00
7966;BME280;4028;43.272;26.932;2022-10-14T11:07:38;99484.88;;;17.02;100.00
7966;BME280;4028;43.272;26.932;2022-10-14T11:12:46;99468.63;;;16.89;100.00
7966;BME280;4028;43.272;26.932;2022-10-14T11:15:19;99464.09;;;16.89;100.00
7966;BME280;4028;43.272;26.932;2022-10-14T11:17:53;99452.22;;;16.92;100.00
7966;BME280;4028;43.272;26.932;2022-10-14T11:20:34;99452.63;;;17.04;100.00
7966;BME280;4028;43.272;26.932;2022-10-14T11:26:01;99445.28;;;17.06;100.00
7966;BME280;4028;43.272;26.932;2022-10-14T11:39:54;99425.50;;;17.15;100.00
7966;BME280;4028;43.272;26.932;2022-10-14T11:47:50;99429.25;;;17.44;100.00
7966;BME280;4028;43.272;26.932;2022-10-14T11:50:39;99426.28;;;17.38;100.00
7966;BME280;4028;43.272;26.932;2022-10-14T11:58:56;99426.81;;;17.34;100.00
7966;BME280;4028;43.272;26.932;2022-10-14T12:01:26;99426.53;;;17.29;100.00
7966;BME280;4028;43.272;26.932;2022-10-14T12:04:05;99424.97;;;17.34;100.00
7966;BME280;4028;43.272;26.932;2022-10-14T12:06:42;99424.81;;;17.36;100.00
7966;BME280;4028;43.272;26.932;2022-10-14T12:09:35;99426.72;;;17.27;100.00
7966;BME280;4028;43.272;26.932;2022-10-14T12:12:06;99427.34;;;17.29;100.00
7966;BME280;4028;43.272;26.932;2022-10-14T12:14:43;99419.78;;;17.18;100.00
7966;BME280;4028;43.272;26.932;2022-10-14T12:17:18;99422.94;;;17.22;100.00
7966;BME280;4028;43.272;26.932;2022-10-14T12:19:45;99408.25;;;17.18;100.00
7966;BME280;4028;43.272;26.932;2022-10-14T12:22:18;99425.22;;;17.25;100.00
7966;BME280;4028;43.272;26.932;2022-10-14T12:24:53;99415.53;;;17.24;100.00
7966;BME280;4028;43.272;26.932;2022-10-14T12:27:21;99417.38;;;17.23;100.00
7966;BME280;4028;43.272;26.932;2022-10-14T12:29:50;99420.50;;;17.12;100.00
7966;BME280;4028;43.272;26.932;2022-10-14T12:34:54;99421.28;;;17.21;100.00
7966;BME280;4028;43.272;26.932;2022-10-14T12:42:28;99413.06;;;16.99;100.00
7966;BME280;4028;43.272;26.932;2022-10-14T12:44:57;99411.88;;;17.02;100.00
7966;BME280;4028;43.272;26.932;2022-10-14T12:47:26;99414.06;;;16.98;100.00
7966;BME280;4028;43.272;26.932;2022-10-14T12:50:24;99405.13;;;16.91;100.00
7966;BME280;4028;43.272;26.932;2022-10-14T12:52:57;99408.09;;;16.96;100.00
7966;BME280;4028;43.272;26.932;2022-10-14T12:55:26;99398.94;;;16.91;100.00
7966;BME280;4028;43.272;26.932;2022-10-14T12:57:59;99409.09;;;16.95;100.00
7966;BME280;4028;43.272;26.932;2022-10-14T13:00:27;99405.75;;;16.93;100.00
7966;BME280;4028;43.272;26.932;2022-10-14T13:02:58;99402.44;;;16.91;100.00
7966;BME280;4028;43.272;26.932;2022-10-14T13:16:03;99403.00;;;16.78;100.00
7966;BME280;4028;43.272;26.932;2022-10-14T13:21:00;99400.19;;;16.80;100.00
7966;BME280;4028;43.272;26.932;2022-10-14T13:23:45;99398.53;;;16.79;100.00
7966;BME280;4028;43.272;26.932;2022-10-14T13:26:27;99400.50;;;16.85;100.00
7966;BME280;4028;43.272;26.932;2022-10-14T13:34:35;99400.81;;;16.82;100.00
7966;BME280;4028;43.272;26.932;2022-10-14T13:42:35;99392.91;;;16.88;100.00
7966;BME280;4028;43.272;26.932;2022-10-14T13:45:12;99412.06;;;17.00;100.00
7966;BME280;4028;43.272;26.932;2022-10-14T13:47:43;99412.06;;;17.00;100.00
7966;BME280;4028;43.272;26.932;2022-10-14T13:50:15;99415.50;;;17.09;100.00
7966;BME280;4028;43.272;26.932;2022-10-14T13:52:48;99412.38;;;17.05;100.00
7966;BME280;4028;43.272;26.932;2022-10-14T13:55:19;99416.88;;;17.05;100.00
7966;BME280;4028;43.272;26.932;2022-10-14T14:00:30;99416.31;;;17.09;100.00
7966;BME280;4028;43.272;26.932;2022-10-14T14:02:56;99409.50;;;17.07;99.82
7966;BME280;4028;43.272;26.932;2022-10-14T14:05:23;99413.72;;;17.01;100.00
7966;BME280;4028;43.272;26.932;2022-10-14T14:07:50;99414.06;;;16.98;100.00
7966;BME280;4028;43.272;26.932;2022-10-14T14:10:22;99414.84;;;17.07;100.00
7966;BME280;4028;43.272;26.932;2022-10-14T14:12:49;99424.34;;;17.09;96.89
7966;BME280;4028;43.272;26.932;2022-10-14T14:15:19;99425.34;;;17.08;100.00
7966;BME280;4028;43.272;26.932;2022-10-14T14:17:46;99416.50;;;17.08;100.00
7966;BME280;4028;43.272;26.932;2022-10-14T14:20:12;99424.53;;;17.08;100.00
7966;BME280;4028;43.272;26.932;2022-10-14T14:22:42;99429.56;;;17.03;100.00
7966;BME280;4028;43.272;26.932;2022-10-14T14:25:25;99432.25;;;17.03;100.00
7966;BME280;4028;43.272;26.932;2022-10-14T14:28:00;99435.69;;;16.88;100.00
7966;BME280;4028;43.272;26.932;2022-10-14T14:30:30;99437.38;;;16.89;100.00
7966;BME280;4028;43.272;26.932;2022-10-14T14:33:05;99433.19;;;16.87;100.00
7966;BME280;4028;43.272;26.932;2022-10-14T14:35:31;99426.53;;;16.83;100.00
7966;BME280;4028;43.272;26.932;2022-10-14T14:37:57;99423.56;;;16.78;100.00
7966;BME280;4028;43.272;26.932;2022-10-14T14:40:25;99431.75;;;16.76;100.00
7966;BME280;4028;43.272;26.932;2022-10-14T14:42:53;99432.09;;;16.73;100.00
7966;BME280;4028;43.272;26.932;2022-10-14T14:45:22;99417.69;;;16.51;100.00
7966;BME280;4028;43.272;26.932;2022-10-14T14:47:54;99441.19;;;16.56;100.00
7966;BME280;4028;43.272;26.932;2022-10-14T14:50:31;99438.72;;;16.54;100.00
7966;BME280;4028;43.272;26.932;2022-10-14T14:53:10;99436.06;;;16.46;100.00
7966;BME280;4028;43.272;26.932;2022-10-14T15:00:55;99443.78;;;16.41;100.00
7966;BME280;4028;43.272;26.932;2022-10-14T15:03:27;99443.16;;;16.31;100.00
7966;BME280;4028;43.272;26.932;2022-10-14T15:05:59;99444.34;;;16.28;100.00
7966;BME280;4028;43.272;26.932;2022-10-14T15:08:28;99443.03;;;16.24;100.00
7966;BME280;4028;43.272;26.932;2022-10-14T15:10:57;99451.38;;;16.21;100.00